createdAt,value
2023-12-23T00:01:39.151Z,89
2023-12-23T00:11:39.359Z,89
2023-12-23T00:31:39.759Z,89
2023-12-23T01:01:40.331Z,89
2023-12-23T01:11:40.483Z,88
2023-12-23T01:21:40.692Z,88
2023-12-23T01:41:47.223Z,88
2023-12-23T01:51:41.297Z,86
2023-12-23T02:01:41.540Z,86
2023-12-23T02:11:41.690Z,87
2023-12-23T02:41:42.240Z,90
2023-12-23T02:51:42.435Z,91
2023-12-23T03:51:43.606Z,96
2023-12-23T04:01:43.802Z,96
2023-12-23T04:51:44.785Z,94
2023-12-23T05:11:45.178Z,93
2023-12-23T05:21:45.354Z,92
2023-12-23T05:31:45.608Z,92
2023-12-23T05:41:51.882Z,93
2023-12-23T05:51:45.932Z,93
2023-12-23T06:01:58.353Z,92
2023-12-23T06:11:46.362Z,92
2023-12-23T06:21:46.553Z,91
2023-12-23T06:31:46.707Z,91
2023-12-23T06:41:52.998Z,92
2023-12-23T06:51:47.116Z,91
2023-12-23T07:01:53.485Z,92
2023-12-23T07:21:47.680Z,92
2023-12-23T07:31:47.874Z,92
2023-12-23T07:41:48.067Z,92
2023-12-23T07:51:48.296Z,92
2023-12-23T08:01:48.464Z,92
2023-12-23T08:11:48.667Z,92
2023-12-23T08:31:49.041Z,91
2023-12-23T08:41:49.220Z,91
2023-12-23T08:51:49.416Z,91
2023-12-23T09:01:49.627Z,90
2023-12-23T09:11:49.800Z,89
2023-12-23T09:21:50.013Z,89
2023-12-23T09:31:50.229Z,89
2023-12-23T09:41:50.377Z,88
2023-12-23T10:01:50.792Z,86
2023-12-23T10:11:50.967Z,86
2023-12-23T10:31:51.374Z,86
2023-12-23T10:41:57.640Z,87
2023-12-23T10:51:51.720Z,89
2023-12-23T11:01:51.923Z,91
2023-12-23T11:21:52.339Z,90
2023-12-23T11:31:52.493Z,90
2023-12-23T11:41:52.708Z,89
2023-12-23T11:51:52.900Z,90
2023-12-23T12:01:59.235Z,90
2023-12-23T12:11:53.270Z,89
2023-12-23T12:21:53.455Z,88
2023-12-23T12:31:59.803Z,88
2023-12-23T12:42:06.049Z,88
2023-12-23T12:51:54.066Z,87
2023-12-23T13:02:00.382Z,86
2023-12-23T13:11:54.453Z,86
2023-12-23T13:21:54.617Z,84
2023-12-23T13:31:54.823Z,83
2023-12-23T13:41:55.010Z,82
2023-12-23T13:51:55.207Z,83
2023-12-23T14:11:55.588Z,81
2023-12-23T14:21:55.797Z,80
2023-12-23T14:31:56.000Z,80
2023-12-23T14:51:56.362Z,80
2023-12-23T15:01:56.586Z,80
2023-12-23T15:21:56.908Z,81
2023-12-23T15:31:57.148Z,81
2023-12-23T15:41:57.321Z,81
2023-12-23T15:51:57.497Z,81
2023-12-23T16:01:57.764Z,82
2023-12-23T16:31:58.861Z,84
2023-12-23T16:41:58.479Z,88
2023-12-23T16:51:58.660Z,92
2023-12-23T17:02:04.960Z,94
2023-12-23T17:11:59.052Z,94
2023-12-23T17:21:59.265Z,94
2023-12-23T17:32:05.550Z,94
2023-12-23T17:42:05.736Z,94
2023-12-23T17:51:59.807Z,94
2023-12-23T18:12:00.312Z,94
2023-12-23T18:22:02.285Z,94
2023-12-23T18:32:00.653Z,94
2023-12-23T18:42:00.772Z,94
2023-12-23T19:02:01.162Z,94
2023-12-23T19:12:01.348Z,93
2023-12-23T19:22:01.574Z,92
2023-12-23T19:32:01.763Z,90
2023-12-23T19:42:01.937Z,90
2023-12-23T19:52:02.133Z,90
2023-12-23T20:02:02.362Z,89
2023-12-23T20:12:02.520Z,88
2023-12-23T20:22:02.722Z,88
2023-12-23T20:32:02.922Z,88
2023-12-23T20:42:03.269Z,88
2023-12-23T21:22:03.875Z,85
2023-12-23T21:32:04.097Z,84
2023-12-23T21:42:04.289Z,84
2023-12-23T21:52:04.444Z,84
2023-12-23T22:02:04.628Z,84
2023-12-23T22:12:04.858Z,84
2023-12-23T22:22:05.065Z,84
2023-12-23T22:32:05.272Z,84
2023-12-23T22:42:11.523Z,84
2023-12-23T22:52:11.732Z,84
2023-12-23T23:02:11.977Z,84
2023-12-23T23:32:06.409Z,84
2023-12-23T23:42:06.618Z,84
2023-12-23T23:52:06.829Z,85
